sensor_id;sensor_type;location;lat;lon;timestamp;temperature;humidity
30037;DHT22;36325;51.512;-0.382;2023-05-21T00:03:42;11.30;99.90
30037;DHT22;36325;51.512;-0.382;2023-05-21T00:11:08;11.20;99.90
30037;DHT22;36325;51.512;-0.382;2023-05-21T00:16:04;11.10;99.90
30037;DHT22;36325;51.512;-0.382;2023-05-21T00:18:32;11.00;99.90
30037;DHT22;36325;51.512;-0.382;2023-05-21T00:21:00;11.00;99.90
30037;DHT22;36325;51.512;-0.382;2023-05-21T00:23:27;10.90;99.90
30037;DHT22;36325;51.512;-0.382;2023-05-21T00:25:58;10.90;99.90
30037;DHT22;36325;51.512;-0.382;2023-05-21T00:28:26;10.90;99.90
30037;DHT22;36325;51.512;-0.382;2023-05-21T00:30:53;10.80;99.90
30037;DHT22;36325;51.512;-0.382;2023-05-21T00:33:20;10.80;99.90
30037;DHT22;36325;51.512;-0.382;2023-05-21T00:38:15;10.70;99.90
30037;DHT22;36325;51.512;-0.382;2023-05-21T00:40:43;10.70;99.90
30037;DHT22;36325;51.512;-0.382;2023-05-21T00:43:11;10.70;99.90
30037;DHT22;36325;51.512;-0.382;2023-05-21T00:45:40;10.70;99.90
30037;DHT22;36325;51.512;-0.382;2023-05-21T00:48:10;10.60;99.90
30037;DHT22;36325;51.512;-0.382;2023-05-21T00:53:07;10.60;99.90
30037;DHT22;36325;51.512;-0.382;2023-05-21T00:55:36;10.60;99.90
30037;DHT22;36325;51.512;-0.382;2023-05-21T00:58:05;10.50;99.90
30037;DHT22;36325;51.512;-0.382;2023-05-21T01:00:33;10.50;99.90
30037;DHT22;36325;51.512;-0.382;2023-05-21T01:03:01;10.40;99.90
30037;DHT22;36325;51.512;-0.382;2023-05-21T01:05:29;10.50;99.90
30037;DHT22;36325;51.512;-0.382;2023-05-21T01:07:57;10.40;99.90
30037;DHT22;36325;51.512;-0.382;2023-05-21T01:10:25;10.40;99.90
30037;DHT22;36325;51.512;-0.382;2023-05-21T01:12:54;10.30;99.90
30037;DHT22;36325;51.512;-0.382;2023-05-21T01:15:23;10.30;99.90
30037;DHT22;36325;51.512;-0.382;2023-05-21T01:17:51;10.30;99.90
30037;DHT22;36325;51.512;-0.382;2023-05-21T01:20:21;10.20;99.90
30037;DHT22;36325;51.512;-0.382;2023-05-21T01:22:52;10.20;99.90
30037;DHT22;36325;51.512;-0.382;2023-05-21T01:27:48;10.10;99.90
30037;DHT22;36325;51.512;-0.382;2023-05-21T01:30:17;10.10;99.90
30037;DHT22;36325;51.512;-0.382;2023-05-21T01:36:12;10.00;99.90
30037;DHT22;36325;51.512;-0.382;2023-05-21T01:38:28;10.00;99.90
30037;DHT22;36325;51.512;-0.382;2023-05-21T01:41:07;10.00;99.90
30037;DHT22;36325;51.512;-0.382;2023-05-21T01:43:38;10.00;99.90
30037;DHT22;36325;51.512;-0.382;2023-05-21T01:46:08;9.90;99.90
30037;DHT22;36325;51.512;-0.382;2023-05-21T01:48:36;9.90;99.90
30037;DHT22;36325;51.512;-0.382;2023-05-21T01:51:05;9.90;99.90
30037;DHT22;36325;51.512;-0.382;2023-05-21T01:56:01;9.80;99.90
30037;DHT22;36325;51.512;-0.382;2023-05-21T01:58:29;9.80;99.90
30037;DHT22;36325;51.512;-0.382;2023-05-21T02:03:26;9.80;99.90
30037;DHT22;36325;51.512;-0.382;2023-05-21T02:10:49;9.80;99.90
30037;DHT22;36325;51.512;-0.382;2023-05-21T02:13:17;9.80;99.90
30037;DHT22;36325;51.512;-0.382;2023-05-21T02:15:51;9.80;99.90
30037;DHT22;36325;51.512;-0.382;2023-05-21T02:20:49;9.80;99.90
30037;DHT22;36325;51.512;-0.382;2023-05-21T02:23:16;9.70;99.90
30037;DHT22;36325;51.512;-0.382;2023-05-21T02:28:11;9.70;99.90
30037;DHT22;36325;51.512;-0.382;2023-05-21T02:33:06;9.70;99.90
30037;DHT22;36325;51.512;-0.382;2023-05-21T02:35:35;9.70;99.90
30037;DHT22;36325;51.512;-0.382;2023-05-21T02:38:02;9.70;99.90
30037;DHT22;36325;51.512;-0.382;2023-05-21T02:40:30;9.70;99.90
30037;DHT22;36325;51.512;-0.382;2023-05-21T02:42:58;9.70;99.90
30037;DHT22;36325;51.512;-0.382;2023-05-21T02:45:29;9.60;99.90
30037;DHT22;36325;51.512;-0.382;2023-05-21T02:50:24;9.60;99.90
30037;DHT22;36325;51.512;-0.382;2023-05-21T02:52:57;9.60;99.90
30037;DHT22;36325;51.512;-0.382;2023-05-21T02:55:26;9.60;99.90
30037;DHT22;36325;51.512;-0.382;2023-05-21T02:57:53;9.60;99.90
30037;DHT22;36325;51.512;-0.382;2023-05-21T03:00:21;9.60;99.90
30037;DHT22;36325;51.512;-0.382;2023-05-21T03:02:48;9.60;99.90
30037;DHT22;36325;51.512;-0.382;2023-05-21T03:07:43;9.60;99.90
30037;DHT22;36325;51.512;-0.382;2023-05-21T03:10:11;9.60;99.90
30037;DHT22;36325;51.512;-0.382;2023-05-21T03:12:39;9.50;99.90
30037;DHT22;36325;51.512;-0.382;2023-05-21T03:15:07;9.50;99.90
30037;DHT22;36325;51.512;-0.382;2023-05-21T03:17:34;9.50;99.90
30037;DHT22;36325;51.512;-0.382;2023-05-21T03:20:02;9.50;99.90
30037;DHT22;36325;51.512;-0.382;2023-05-21T03:22:31;9.50;99.90
30037;DHT22;36325;51.512;-0.382;2023-05-21T03:24:59;9.50;99.90
30037;DHT22;36325;51.512;-0.382;2023-05-21T03:27:27;9.50;99.90
30037;DHT22;36325;51.512;-0.382;2023-05-21T03:29:54;9.40;99.90
30037;DHT22;36325;51.512;-0.382;2023-05-21T03:32:23;9.50;99.90
30037;DHT22;36325;51.512;-0.382;2023-05-21T03:34:52;9.50;99.90
30037;DHT22;36325;51.512;-0.382;2023-05-21T03:37:19;9.50;99.90
30037;DHT22;36325;51.512;-0.382;2023-05-21T03:39:46;9.40;99.90
30037;DHT22;36325;51.512;-0.382;2023-05-21T03:42:14;9.50;99.90
30037;DHT22;36325;51.512;-0.382;2023-05-21T03:44:48;9.50;99.90
30037;DHT22;36325;51.512;-0.382;2023-05-21T03:47:32;9.40;99.90
30037;DHT22;36325;51.512;-0.382;2023-05-21T03:50:01;9.40;99.90
30037;DHT22;36325;51.512;-0.382;2023-05-21T03:52:29;9.40;99.90
30037;DHT22;36325;51.512;-0.382;2023-05-21T03:54:56;9.40;99.90
30037;DHT22;36325;51.512;-0.382;2023-05-21T03:59:51;9.30;99.90
30037;DHT22;36325;51.512;-0.382;2023-05-21T04:02:20;9.30;99.90
30037;DHT22;36325;51.512;-0.382;2023-05-21T04:07:18;9.30;99.90
30037;DHT22;36325;51.512;-0.382;2023-05-21T04:12:13;9.30;99.90
30037;DHT22;36325;51.512;-0.382;2023-05-21T04:14:41;9.30;99.90
30037;DHT22;36325;51.512;-0.382;2023-05-21T04:17:10;9.30;99.90
30037;DHT22;36325;51.512;-0.382;2023-05-21T04:19:40;9.30;99.90
30037;DHT22;36325;51.512;-0.382;2023-05-21T04:22:09;9.30;99.90
30037;DHT22;36325;51.512;-0.382;2023-05-21T04:24:38;9.30;99.90
30037;DHT22;36325;51.512;-0.382;2023-05-21T04:27:09;9.30;99.90
30037;DHT22;36325;51.512;-0.382;2023-05-21T04:29:38;9.30;99.90
30037;DHT22;36325;51.512;-0.382;2023-05-21T04:32:09;9.30;99.90
30037;DHT22;36325;51.512;-0.382;2023-05-21T04:34:39;9.40;99.90
30037;DHT22;36325;51.512;-0.382;2023-05-21T04:37:06;9.40;99.90
30037;DHT22;36325;51.512;-0.382;2023-05-21T04:39:33;9.40;99.90
30037;DHT22;36325;51.512;-0.382;2023-05-21T04:44:29;9.50;99.90
30037;DHT22;36325;51.512;-0.382;2023-05-21T04:46:58;9.50;99.90
30037;DHT22;36325;51.512;-0.382;2023-05-21T04:49:26;9.50;99.90
30037;DHT22;36325;51.512;-0.382;2023-05-21T04:51:54;9.50;99.90
30037;DHT22;36325;51.512;-0.382;2023-05-21T04:54:22;9.50;99.90
30037;DHT22;36325;51.512;-0.382;2023-05-21T04:59:17;9.50;99.90
30037;DHT22;36325;51.512;-0.382;2023-05-21T05:01:45;9.60;99.90
30037;DHT22;36325;51.512;-0.382;2023-05-21T05:04:12;9.60;99.90
30037;DHT22;36325;51.512;-0.382;2023-05-21T05:09:07;9.70;99.90
30037;DHT22;36325;51.512;-0.382;2023-05-21T05:11:35;9.70;99.90
30037;DHT22;36325;51.512;-0.382;2023-05-21T05:14:03;9.80;99.90
30037;DHT22;36325;51.512;-0.382;2023-05-21T05:16:30;9.80;99.90
30037;DHT22;36325;51.512;-0.382;2023-05-21T05:18:58;9.90;99.90
30037;DHT22;36325;51.512;-0.382;2023-05-21T05:21:25;9.90;99.90
30037;DHT22;36325;51.512;-0.382;2023-05-21T05:23:53;9.90;99.90
30037;DHT22;36325;51.512;-0.382;2023-05-21T05:26:24;10.00;99.90
30037;DHT22;36325;51.512;-0.382;2023-05-21T05:31:19;10.10;99.90
30037;DHT22;36325;51.512;-0.382;2023-05-21T05:33:47;10.10;99.90
30037;DHT22;36325;51.512;-0.382;2023-05-21T05:36:16;10.20;99.90
30037;DHT22;36325;51.512;-0.382;2023-05-21T05:41:12;10.30;99.90
30037;DHT22;36325;51.512;-0.382;2023-05-21T05:46:08;10.40;99.90
30037;DHT22;36325;51.512;-0.382;2023-05-21T05:48:35;10.40;99.90
30037;DHT22;36325;51.512;-0.382;2023-05-21T05:53:31;10.50;99.90
30037;DHT22;36325;51.512;-0.382;2023-05-21T05:55:59;10.60;99.90
30037;DHT22;36325;51.512;-0.382;2023-05-21T05:58:29;10.70;99.90
30037;DHT22;36325;51.512;-0.382;2023-05-21T06:01:06;10.70;99.90
30037;DHT22;36325;51.512;-0.382;2023-05-21T06:03:34;10.80;99.90
30037;DHT22;36325;51.512;-0.382;2023-05-21T06:06:09;10.80;99.90
30037;DHT22;36325;51.512;-0.382;2023-05-21T06:11:06;11.00;99.90
30037;DHT22;36325;51.512;-0.382;2023-05-21T06:13:33;11.10;99.90
30037;DHT22;36325;51.512;-0.382;2023-05-21T06:16:02;11.20;99.90
30037;DHT22;36325;51.512;-0.382;2023-05-21T06:18:30;11.30;99.90
30037;DHT22;36325;51.512;-0.382;2023-05-21T06:20:58;11.30;99.90
30037;DHT22;36325;51.512;-0.382;2023-05-21T06:28:24;11.50;99.90
30037;DHT22;36325;51.512;-0.382;2023-05-21T06:30:52;11.70;99.90
30037;DHT22;36325;51.512;-0.382;2023-05-21T06:33:20;11.70;99.90
30037;DHT22;36325;51.512;-0.382;2023-05-21T06:35:47;11.90;99.90
30037;DHT22;36325;51.512;-0.382;2023-05-21T06:43:21;12.20;99.90
30037;DHT22;36325;51.512;-0.382;2023-05-21T06:46:07;12.10;99.90
30037;DHT22;36325;51.512;-0.382;2023-05-21T06:48:38;12.20;99.90
30037;DHT22;36325;51.512;-0.382;2023-05-21T06:53:34;12.60;99.90
30037;DHT22;36325;51.512;-0.382;2023-05-21T06:56:01;12.50;99.90
30037;DHT22;36325;51.512;-0.382;2023-05-21T06:58:38;12.70;99.90
30037;DHT22;36325;51.512;-0.382;2023-05-21T07:01:05;12.80;99.90
30037;DHT22;36325;51.512;-0.382;2023-05-21T07:03:32;13.00;99.90
30037;DHT22;36325;51.512;-0.382;2023-05-21T07:06:00;12.90;99.90
30037;DHT22;36325;51.512;-0.382;2023-05-21T07:08:27;13.10;99.90
30037;DHT22;36325;51.512;-0.382;2023-05-21T07:18:20;13.50;99.90
30037;DHT22;36325;51.512;-0.382;2023-05-21T07:20:49;13.70;99.90
30037;DHT22;36325;51.512;-0.382;2023-05-21T07:23:18;13.80;99.90
30037;DHT22;36325;51.512;-0.382;2023-05-21T07:25:45;14.00;99.90
30037;DHT22;36325;51.512;-0.382;2023-05-21T07:30:41;14.20;99.90
30037;DHT22;36325;51.512;-0.382;2023-05-21T07:33:13;14.40;99.90
30037;DHT22;36325;51.512;-0.382;2023-05-21T07:35:40;14.50;99.90
30037;DHT22;36325;51.512;-0.382;2023-05-21T07:43:06;14.90;99.90
30037;DHT22;36325;51.512;-0.382;2023-05-21T07:48:03;15.30;99.90
30037;DHT22;36325;51.512;-0.382;2023-05-21T07:50:33;15.50;99.90
30037;DHT22;36325;51.512;-0.382;2023-05-21T07:53:00;15.70;99.90
30037;DHT22;36325;51.512;-0.382;2023-05-21T07:55:29;15.80;99.90
30037;DHT22;36325;51.512;-0.382;2023-05-21T07:57:57;16.00;99.90
30037;DHT22;36325;51.512;-0.382;2023-05-21T08:00:28;16.20;99.90
30037;DHT22;36325;51.512;-0.382;2023-05-21T08:02:56;16.40;99.90
30037;DHT22;36325;51.512;-0.382;2023-05-21T08:05:25;16.60;99.90
30037;DHT22;36325;51.512;-0.382;2023-05-21T08:07:52;16.70;99.90
30037;DHT22;36325;51.512;-0.382;2023-05-21T08:12:49;17.10;99.90
30037;DHT22;36325;51.512;-0.382;2023-05-21T08:15:18;17.40;99.90
30037;DHT22;36325;51.512;-0.382;2023-05-21T08:17:45;17.50;99.90
30037;DHT22;36325;51.512;-0.382;2023-05-21T08:20:13;18.10;99.90
30037;DHT22;36325;51.512;-0.382;2023-05-21T08:22:43;18.20;99.90
30037;DHT22;36325;51.512;-0.382;2023-05-21T08:25:10;18.30;99.90
30037;DHT22;36325;51.512;-0.382;2023-05-21T08:27:38;18.30;99.90
30037;DHT22;36325;51.512;-0.382;2023-05-21T08:30:06;18.30;99.90
30037;DHT22;36325;51.512;-0.382;2023-05-21T08:32:34;18.50;99.90
30037;DHT22;36325;51.512;-0.382;2023-05-21T08:35:01;18.70;99.90
30037;DHT22;36325;51.512;-0.382;2023-05-21T08:38:08;18.70;99.90
30037;DHT22;36325;51.512;-0.382;2023-05-21T08:40:50;18.90;99.90
30037;DHT22;36325;51.512;-0.382;2023-05-21T08:43:19;19.00;99.90
30037;DHT22;36325;51.512;-0.382;2023-05-21T08:45:52;19.20;99.90
30037;DHT22;36325;51.512;-0.382;2023-05-21T08:48:30;19.80;99.90
30037;DHT22;36325;51.512;-0.382;2023-05-21T08:50:59;19.70;99.90
30037;DHT22;36325;51.512;-0.382;2023-05-21T08:53:32;19.80;99.90
30037;DHT22;36325;51.512;-0.382;2023-05-21T08:56:03;19.80;99.90
30037;DHT22;36325;51.512;-0.382;2023-05-21T08:58:40;19.80;99.90
30037;DHT22;36325;51.512;-0.382;2023-05-21T09:01:14;20.00;99.90
30037;DHT22;36325;51.512;-0.382;2023-05-21T09:03:49;20.30;99.90
30037;DHT22;36325;51.512;-0.382;2023-05-21T09:06:19;20.30;99.90
30037;DHT22;36325;51.512;-0.382;2023-05-21T09:08:55;20.50;99.90
30037;DHT22;36325;51.512;-0.382;2023-05-21T09:11:36;20.80;99.90
30037;DHT22;36325;51.512;-0.382;2023-05-21T09:14:04;20.70;99.90
30037;DHT22;36325;51.512;-0.382;2023-05-21T09:16:50;21.10;99.90
30037;DHT22;36325;51.512;-0.382;2023-05-21T09:19:22;21.10;99.90
30037;DHT22;36325;51.512;-0.382;2023-05-21T09:21:52;21.20;99.90
30037;DHT22;36325;51.512;-0.382;2023-05-21T09:24:23;21.40;99.90
30037;DHT22;36325;51.512;-0.382;2023-05-21T09:26:52;21.70;99.90
30037;DHT22;36325;51.512;-0.382;2023-05-21T09:29:19;21.80;99.90
30037;DHT22;36325;51.512;-0.382;2023-05-21T09:31:47;22.00;99.90
30037;DHT22;36325;51.512;-0.382;2023-05-21T09:34:15;22.10;99.90
30037;DHT22;36325;51.512;-0.382;2023-05-21T09:36:45;21.70;99.90
30037;DHT22;36325;51.512;-0.382;2023-05-21T09:39:27;21.70;99.90
30037;DHT22;36325;51.512;-0.382;2023-05-21T09:41:59;21.60;99.90
30037;DHT22;36325;51.512;-0.382;2023-05-21T09:44:27;21.40;99.90
30037;DHT22;36325;51.512;-0.382;2023-05-21T09:46:56;21.00;99.90
30037;DHT22;36325;51.512;-0.382;2023-05-21T09:49:27;20.70;99.90
30037;DHT22;36325;51.512;-0.382;2023-05-21T09:51:57;20.60;99.90
30037;DHT22;36325;51.512;-0.382;2023-05-21T09:54:31;20.60;99.90
30037;DHT22;36325;51.512;-0.382;2023-05-21T09:57:00;21.00;99.90
30037;DHT22;36325;51.512;-0.382;2023-05-21T09:59:40;21.10;99.90
30037;DHT22;36325;51.512;-0.382;2023-05-21T10:02:21;21.00;99.90
30037;DHT22;36325;51.512;-0.382;2023-05-21T10:04:51;20.80;99.90
30037;DHT22;36325;51.512;-0.382;2023-05-21T10:07:21;20.60;99.90
30037;DHT22;36325;51.512;-0.382;2023-05-21T10:09:56;20.60;99.90
30037;DHT22;36325;51.512;-0.382;2023-05-21T10:12:24;20.50;99.90
30037;DHT22;36325;51.512;-0.382;2023-05-21T10:14:58;20.30;99.90
30037;DHT22;36325;51.512;-0.382;2023-05-21T10:17:27;20.20;99.90
30037;DHT22;36325;51.512;-0.382;2023-05-21T10:19:55;20.20;99.90
30037;DHT22;36325;51.512;-0.382;2023-05-21T10:22:24;20.20;99.90
30037;DHT22;36325;51.512;-0.382;2023-05-21T10:24:52;19.00;99.90
30037;DHT22;36325;51.512;-0.382;2023-05-21T10:27:21;20.40;99.90
30037;DHT22;36325;51.512;-0.382;2023-05-21T10:29:49;20.40;99.90
30037;DHT22;36325;51.512;-0.382;2023-05-21T10:32:20;20.30;99.90
30037;DHT22;36325;51.512;-0.382;2023-05-21T10:34:48;20.20;99.90
30037;DHT22;36325;51.512;-0.382;2023-05-21T10:39:48;19.90;99.90
30037;DHT22;36325;51.512;-0.382;2023-05-21T10:56:24;20.10;99.90
30037;DHT22;36325;51.512;-0.382;2023-05-21T11:01:56;20.10;99.90
30037;DHT22;36325;51.512;-0.382;2023-05-21T11:04:27;20.00;99.90
30037;DHT22;36325;51.512;-0.382;2023-05-21T11:06:55;20.00;99.90
30037;DHT22;36325;51.512;-0.382;2023-05-21T11:09:25;20.00;99.90
30037;DHT22;36325;51.512;-0.382;2023-05-21T11:11:56;20.10;99.90
30037;DHT22;36325;51.512;-0.382;2023-05-21T11:17:03;20.00;99.90
30037;DHT22;36325;51.512;-0.382;2023-05-21T11:19:43;20.00;99.90
30037;DHT22;36325;51.512;-0.382;2023-05-21T11:22:22;20.10;99.90
30037;DHT22;36325;51.512;-0.382;2023-05-21T11:24:51;18.10;99.90
30037;DHT22;36325;51.512;-0.382;2023-05-21T11:30:16;20.10;99.90
30037;DHT22;36325;51.512;-0.382;2023-05-21T11:33:22;20.00;99.90
30037;DHT22;36325;51.512;-0.382;2023-05-21T11:38:20;20.20;99.90
30037;DHT22;36325;51.512;-0.382;2023-05-21T11:40:51;20.40;99.90
30037;DHT22;36325;51.512;-0.382;2023-05-21T11:43:22;21.30;99.90
30037;DHT22;36325;51.512;-0.382;2023-05-21T11:45:51;21.60;99.90
30037;DHT22;36325;51.512;-0.382;2023-05-21T11:48:21;21.40;99.90
30037;DHT22;36325;51.512;-0.382;2023-05-21T11:50:52;21.40;99.90
30037;DHT22;36325;51.512;-0.382;2023-05-21T11:53:20;21.50;99.90
30037;DHT22;36325;51.512;-0.382;2023-05-21T11:55:47;21.80;99.90
30037;DHT22;36325;51.512;-0.382;2023-05-21T11:58:17;21.90;99.90
30037;DHT22;36325;51.512;-0.382;2023-05-21T12:00:49;22.20;99.90
30037;DHT22;36325;51.512;-0.382;2023-05-21T12:03:17;22.80;99.90
30037;DHT22;36325;51.512;-0.382;2023-05-21T12:05:45;23.10;99.90
30037;DHT22;36325;51.512;-0.382;2023-05-21T12:08:20;23.50;99.90
30037;DHT22;36325;51.512;-0.382;2023-05-21T12:10:47;23.60;99.90
30037;DHT22;36325;51.512;-0.382;2023-05-21T12:13:14;23.60;99.90
30037;DHT22;36325;51.512;-0.382;2023-05-21T12:15:42;23.30;99.90
30037;DHT22;36325;51.512;-0.382;2023-05-21T12:18:11;23.40;99.90
30037;DHT22;36325;51.512;-0.382;2023-05-21T12:20:39;23.40;99.90
30037;DHT22;36325;51.512;-0.382;2023-05-21T12:23:06;23.30;99.90
30037;DHT22;36325;51.512;-0.382;2023-05-21T12:25:34;23.60;99.90
30037;DHT22;36325;51.512;-0.382;2023-05-21T12:28:01;23.80;99.90
30037;DHT22;36325;51.512;-0.382;2023-05-21T12:30:29;23.50;99.90
30037;DHT22;36325;51.512;-0.382;2023-05-21T12:32:57;23.30;99.90
30037;DHT22;36325;51.512;-0.382;2023-05-21T12:35:26;23.20;99.90
30037;DHT22;36325;51.512;-0.382;2023-05-21T12:37:53;23.30;99.90
30037;DHT22;36325;51.512;-0.382;2023-05-21T12:40:20;24.50;99.90
30037;DHT22;36325;51.512;-0.382;2023-05-21T12:42:48;25.30;99.90
30037;DHT22;36325;51.512;-0.382;2023-05-21T12:45:16;25.30;99.90
30037;DHT22;36325;51.512;-0.382;2023-05-21T12:47:47;24.90;99.90
30037;DHT22;36325;51.512;-0.382;2023-05-21T12:50:19;24.10;99.90
30037;DHT22;36325;51.512;-0.382;2023-05-21T12:52:47;24.00;99.90
30037;DHT22;36325;51.512;-0.382;2023-05-21T12:55:14;23.80;99.90
30037;DHT22;36325;51.512;-0.382;2023-05-21T12:57:43;22.60;99.90
30037;DHT22;36325;51.512;-0.382;2023-05-21T13:00:11;24.10;99.90
30037;DHT22;36325;51.512;-0.382;2023-05-21T13:02:42;23.90;99.90
30037;DHT22;36325;51.512;-0.382;2023-05-21T13:05:15;23.40;99.90
30037;DHT22;36325;51.512;-0.382;2023-05-21T13:07:46;22.80;99.90
30037;DHT22;36325;51.512;-0.382;2023-05-21T13:10:14;22.50;99.90
30037;DHT22;36325;51.512;-0.382;2023-05-21T13:12:45;22.50;99.90
30037;DHT22;36325;51.512;-0.382;2023-05-21T13:15:13;22.20;99.90
30037;DHT22;36325;51.512;-0.382;2023-05-21T13:17:40;22.00;99.90
30037;DHT22;36325;51.512;-0.382;2023-05-21T13:20:18;21.90;99.90
30037;DHT22;36325;51.512;-0.382;2023-05-21T13:22:52;22.10;99.90
30037;DHT22;36325;51.512;-0.382;2023-05-21T13:25:25;22.40;99.90
30037;DHT22;36325;51.512;-0.382;2023-05-21T13:27:55;22.60;99.90
30037;DHT22;36325;51.512;-0.382;2023-05-21T13:30:23;22.60;99.90
30037;DHT22;36325;51.512;-0.382;2023-05-21T13:35:18;22.40;99.90
30037;DHT22;36325;51.512;-0.382;2023-05-21T13:37:45;22.30;99.90
30037;DHT22;36325;51.512;-0.382;2023-05-21T13:40:14;22.20;99.90
30037;DHT22;36325;51.512;-0.382;2023-05-21T13:42:43;22.20;99.90
30037;DHT22;36325;51.512;-0.382;2023-05-21T13:45:13;22.20;99.90
30037;DHT22;36325;51.512;-0.382;2023-05-21T13:47:41;22.20;99.90
30037;DHT22;36325;51.512;-0.382;2023-05-21T13:50:09;22.20;99.90
30037;DHT22;36325;51.512;-0.382;2023-05-21T13:52:37;22.40;99.90
30037;DHT22;36325;51.512;-0.382;2023-05-21T13:55:05;22.30;99.90
30037;DHT22;36325;51.512;-0.382;2023-05-21T13:57:32;22.10;99.90
30037;DHT22;36325;51.512;-0.382;2023-05-21T14:00:00;21.90;99.90
30037;DHT22;36325;51.512;-0.382;2023-05-21T14:02:33;22.10;99.90
30037;DHT22;36325;51.512;-0.382;2023-05-21T14:05:01;22.10;99.90
30037;DHT22;36325;51.512;-0.382;2023-05-21T14:07:28;24.30;99.90
30037;DHT22;36325;51.512;-0.382;2023-05-21T14:09:55;22.40;99.90
30037;DHT22;36325;51.512;-0.382;2023-05-21T14:12:22;22.20;99.90
30037;DHT22;36325;51.512;-0.382;2023-05-21T14:14:50;22.00;99.90
30037;DHT22;36325;51.512;-0.382;2023-05-21T14:17:17;21.70;99.90
30037;DHT22;36325;51.512;-0.382;2023-05-21T14:19:44;21.60;99.90
30037;DHT22;36325;51.512;-0.382;2023-05-21T14:22:13;21.60;99.90
30037;DHT22;36325;51.512;-0.382;2023-05-21T14:24:41;21.90;99.90
30037;DHT22;36325;51.512;-0.382;2023-05-21T14:27:08;21.90;99.90
30037;DHT22;36325;51.512;-0.382;2023-05-21T14:29:36;22.10;99.90
30037;DHT22;36325;51.512;-0.382;2023-05-21T14:32:03;22.30;99.90
30037;DHT22;36325;51.512;-0.382;2023-05-21T14:34:31;22.50;99.90
30037;DHT22;36325;51.512;-0.382;2023-05-21T14:36:58;22.80;99.90
30037;DHT22;36325;51.512;-0.382;2023-05-21T14:39:25;23.30;99.90
30037;DHT22;36325;51.512;-0.382;2023-05-21T14:41:52;23.60;99.90
30037;DHT22;36325;51.512;-0.382;2023-05-21T14:44:20;23.90;99.90
30037;DHT22;36325;51.512;-0.382;2023-05-21T14:46:47;24.40;99.90
30037;DHT22;36325;51.512;-0.382;2023-05-21T14:49:14;25.30;99.90
30037;DHT22;36325;51.512;-0.382;2023-05-21T14:51:41;25.30;99.90
30037;DHT22;36325;51.512;-0.382;2023-05-21T14:54:09;26.20;99.90
30037;DHT22;36325;51.512;-0.382;2023-05-21T14:56:37;26.10;99.90
30037;DHT22;36325;51.512;-0.382;2023-05-21T14:59:04;26.10;99.90
30037;DHT22;36325;51.512;-0.382;2023-05-21T15:01:34;26.00;99.90
30037;DHT22;36325;51.512;-0.382;2023-05-21T15:04:01;25.50;99.90
30037;DHT22;36325;51.512;-0.382;2023-05-21T15:06:29;25.70;99.90
30037;DHT22;36325;51.512;-0.382;2023-05-21T15:08:56;25.80;99.90
30037;DHT22;36325;51.512;-0.382;2023-05-21T15:11:23;25.90;99.90
30037;DHT22;36325;51.512;-0.382;2023-05-21T15:13:51;25.80;99.90
30037;DHT22;36325;51.512;-0.382;2023-05-21T15:16:18;25.90;99.90
30037;DHT22;36325;51.512;-0.382;2023-05-21T15:18:45;26.10;99.90
30037;DHT22;36325;51.512;-0.382;2023-05-21T15:21:13;25.80;99.90
30037;DHT22;36325;51.512;-0.382;2023-05-21T15:23:40;25.30;99.90
30037;DHT22;36325;51.512;-0.382;2023-05-21T15:26:07;24.60;99.90
30037;DHT22;36325;51.512;-0.382;2023-05-21T15:28:35;24.30;99.90
30037;DHT22;36325;51.512;-0.382;2023-05-21T15:31:02;24.50;99.90
30037;DHT22;36325;51.512;-0.382;2023-05-21T15:33:29;24.80;99.90
30037;DHT22;36325;51.512;-0.382;2023-05-21T15:35:57;24.70;99.90
30037;DHT22;36325;51.512;-0.382;2023-05-21T15:38:24;24.50;99.90
30037;DHT22;36325;51.512;-0.382;2023-05-21T15:40:51;24.10;99.90
30037;DHT22;36325;51.512;-0.382;2023-05-21T15:43:19;23.60;99.90
30037;DHT22;36325;51.512;-0.382;2023-05-21T15:45:46;22.80;99.90
30037;DHT22;36325;51.512;-0.382;2023-05-21T15:48:13;22.80;99.90
30037;DHT22;36325;51.512;-0.382;2023-05-21T15:53:09;22.90;99.90
30037;DHT22;36325;51.512;-0.382;2023-05-21T15:55:36;23.40;99.90
30037;DHT22;36325;51.512;-0.382;2023-05-21T15:58:04;23.40;99.90
30037;DHT22;36325;51.512;-0.382;2023-05-21T16:00:32;23.80;99.90
30037;DHT22;36325;51.512;-0.382;2023-05-21T16:03:00;23.60;99.90
30037;DHT22;36325;51.512;-0.382;2023-05-21T16:05:27;23.90;99.90
30037;DHT22;36325;51.512;-0.382;2023-05-21T16:07:54;24.30;99.90
30037;DHT22;36325;51.512;-0.382;2023-05-21T16:10:21;21.00;99.90
30037;DHT22;36325;51.512;-0.382;2023-05-21T16:15:17;23.30;99.90
30037;DHT22;36325;51.512;-0.382;2023-05-21T16:17:44;22.80;99.90
30037;DHT22;36325;51.512;-0.382;2023-05-21T16:20:12;22.80;99.90
30037;DHT22;36325;51.512;-0.382;2023-05-21T16:25:07;22.60;99.90
30037;DHT22;36325;51.512;-0.382;2023-05-21T16:27:35;22.40;99.90
30037;DHT22;36325;51.512;-0.382;2023-05-21T16:30:02;22.00;99.90
30037;DHT22;36325;51.512;-0.382;2023-05-21T16:32:30;21.80;99.90
30037;DHT22;36325;51.512;-0.382;2023-05-21T16:34:57;21.70;99.90
30037;DHT22;36325;51.512;-0.382;2023-05-21T16:37:25;21.50;99.90
30037;DHT22;36325;51.512;-0.382;2023-05-21T16:39:52;21.50;99.90
30037;DHT22;36325;51.512;-0.382;2023-05-21T16:42:20;21.50;99.90
30037;DHT22;36325;51.512;-0.382;2023-05-21T16:44:48;22.10;99.90
30037;DHT22;36325;51.512;-0.382;2023-05-21T16:47:15;22.50;99.90
30037;DHT22;36325;51.512;-0.382;2023-05-21T16:49:42;22.20;99.90
30037;DHT22;36325;51.512;-0.382;2023-05-21T16:52:09;21.80;99.90
30037;DHT22;36325;51.512;-0.382;2023-05-21T16:54:37;21.40;99.90
30037;DHT22;36325;51.512;-0.382;2023-05-21T16:57:04;21.10;99.90
30037;DHT22;36325;51.512;-0.382;2023-05-21T16:59:32;21.00;99.90
30037;DHT22;36325;51.512;-0.382;2023-05-21T17:01:59;20.70;99.90
30037;DHT22;36325;51.512;-0.382;2023-05-21T17:04:26;20.40;99.90
30037;DHT22;36325;51.512;-0.382;2023-05-21T17:06:54;20.30;99.90
30037;DHT22;36325;51.512;-0.382;2023-05-21T17:09:21;20.30;99.90
30037;DHT22;36325;51.512;-0.382;2023-05-21T17:11:49;20.30;99.90
30037;DHT22;36325;51.512;-0.382;2023-05-21T17:14:16;20.10;99.90
30037;DHT22;36325;51.512;-0.382;2023-05-21T17:20:33;19.90;99.90
30037;DHT22;36325;51.512;-0.382;2023-05-21T17:25:28;19.70;99.90
30037;DHT22;36325;51.512;-0.382;2023-05-21T17:27:56;19.70;99.90
30037;DHT22;36325;51.512;-0.382;2023-05-21T17:37:48;19.50;99.90
30037;DHT22;36325;51.512;-0.382;2023-05-21T17:40:16;19.30;99.90
30037;DHT22;36325;51.512;-0.382;2023-05-21T17:42:46;19.30;99.90
30037;DHT22;36325;51.512;-0.382;2023-05-21T17:45:13;19.20;99.90
30037;DHT22;36325;51.512;-0.382;2023-05-21T17:47:41;19.10;99.90
30037;DHT22;36325;51.512;-0.382;2023-05-21T17:50:08;19.10;99.90
30037;DHT22;36325;51.512;-0.382;2023-05-21T17:52:36;19.00;99.90
30037;DHT22;36325;51.512;-0.382;2023-05-21T17:55:03;18.90;99.90
30037;DHT22;36325;51.512;-0.382;2023-05-21T17:57:31;18.70;99.90
30037;DHT22;36325;51.512;-0.382;2023-05-21T18:02:26;18.60;99.90
30037;DHT22;36325;51.512;-0.382;2023-05-21T18:04:53;18.50;99.90
30037;DHT22;36325;51.512;-0.382;2023-05-21T18:07:21;18.50;99.90